Time;durP1;ratioP1;P1;durP2;ratioP2;P2;SDS_P1;SDS_P2;PMS_P1;PMS_P2;Temp;Humidity;BMP_temperature;BMP_pressure;BME280_temperature;BME280_humidity;BME280_pressure;Samples;Min_cycle;Max_cycle;Signal;HPM_P1;HPM_P2
2022/08/30 00:03:13;;;;;;;26.55;12.30;;;;;;;19.34;79.70;98860.59;4915823;29;20060;-92
2022/08/30 00:05:53;;;;;;;28.27;12.43;;;;;;;19.39;79.69;98854.69;4884580;29;20041;-92
2022/08/30 00:09:01;;;;;;;33.13;12.63;;;;;;;19.81;79.20;98920.03;4886948;29;20080;-90
2022/08/30 00:11:43;;;;;;;26.90;12.20;;;;;;;19.37;79.28;98845.94;4885970;29;20060;-93
2022/08/30 00:14:27;;;;;;;32.30;13.10;;;;;;;19.59;79.62;98903.16;4899089;29;20040;-92
2022/08/30 00:17:09;;;;;;;23.83;12.95;;;;;;;19.43;79.97;98872.13;4897135;29;20505;-92
2022/08/30 00:20:41;;;;;;;34.90;14.00;;;;;;;19.60;80.32;98915.06;4887600;29;20049;-92
2022/08/30 00:23:32;;;;;;;30.73;13.60;;;;;;;19.53;80.85;98915.78;4900945;29;20076;-94
2022/08/30 00:26:22;;;;;;;28.25;13.20;;;;;;;18.89;81.12;98821.78;4882917;29;20135;-92
2022/08/30 00:29:53;;;;;;;29.83;12.50;;;;;;;19.54;81.06;98914.63;4831424;29;20057;-93
2022/08/30 00:32:36;;;;;;;26.42;12.40;;;;;;;18.92;81.25;98823.00;4840304;29;20105;-91
2022/08/30 00:39:39;;;;;;;29.02;13.90;;;;;;;19.47;81.51;98909.81;4849800;29;20057;-91
2022/08/30 00:42:07;;;;;;;33.78;13.02;;;;;;;19.49;81.44;98917.75;4821010;29;20049;-92
2022/08/30 00:44:45;;;;;;;39.90;14.43;;;;;;;19.14;81.23;98851.69;4831942;29;20574;-91
2022/08/30 00:47:15;;;;;;;30.13;13.38;;;;;;;18.99;81.62;98829.41;4838390;29;20049;-92
2022/08/30 00:49:56;;;;;;;26.95;13.40;;;;;;;19.11;81.85;98855.25;4830742;29;20037;-93
2022/08/30 00:53:31;;;;;;;34.95;14.05;;;;;;;19.46;81.84;98907.41;4829116;29;20158;-94
2022/08/30 00:56:00;;;;;;;30.88;13.65;;;;;;;18.79;81.70;98797.56;4815541;29;20640;-92
2022/08/30 00:58:32;;;;;;;32.92;13.18;;;;;;;19.24;81.67;98856.56;4847716;29;20512;-94
2022/08/30 01:01:00;;;;;;;30.77;13.82;;;;;;;19.10;81.69;98846.09;4817997;29;20137;-91
2022/08/30 01:03:26;;;;;;;26.92;13.23;;;;;;;19.19;82.12;98856.88;4848729;29;20059;-92
2022/08/30 01:06:49;;;;;;;36.05;14.38;;;;;;;19.47;82.01;98892.38;4869476;29;20059;-92
2022/08/30 01:09:41;;;;;;;30.45;12.80;;;;;;;19.41;82.30;98886.38;4895113;29;20075;-91
2022/08/30 01:16:02;;;;;;;30.02;12.77;;;;;;;19.00;82.50;98839.28;4917831;29;20048;-92
2022/08/30 01:18:56;;;;;;;31.92;13.57;;;;;;;19.39;82.77;98893.50;4879938;29;20071;-92
2022/08/30 01:25:36;;;;;;;25.73;12.90;;;;;;;19.16;82.43;98847.34;4935564;29;20449;-92
2022/08/30 01:28:53;;;;;;;40.03;13.75;;;;;;;19.40;82.67;98892.31;4888779;29;20076;-93
2022/08/30 01:33:02;;;;;;;32.22;13.10;;;;;;;19.40;82.85;98887.59;4914235;29;20454;-95
2022/08/30 01:36:03;;;;;;;35.90;13.68;;;;;;;19.41;82.90;98882.81;4901742;29;20059;-93
2022/08/30 01:38:57;;;;;;;36.20;13.25;;;;;;;19.46;82.72;98879.69;4901716;29;20059;-94
2022/08/30 01:41:38;;;;;;;27.70;12.45;;;;;;;18.88;82.16;98783.41;4870566;29;20511;-92
2022/08/30 01:52:06;;;;;;;29.70;13.43;;;;;;;19.17;82.07;98821.25;4902609;29;20044;-94
2022/08/30 01:54:38;;;;;;;31.33;14.10;;;;;;;18.89;82.11;98788.53;4901491;29;20144;-93
2022/08/30 01:57:19;;;;;;;32.58;13.23;;;;;;;19.14;82.17;98818.44;4907061;29;20071;-94
2022/08/30 02:00:48;;;;;;;32.70;13.05;;;;;;;19.54;82.15;98886.09;4886375;29;20045;-95
2022/08/30 02:03:40;;;;;;;31.50;13.68;;;;;;;19.53;82.38;98892.81;4888996;29;20048;-94
2022/08/30 02:10:58;;;;;;;31.40;13.40;;;;;;;19.39;83.18;98902.59;4903107;29;20151;-92
2022/08/30 02:13:26;;;;;;;37.25;14.02;;;;;;;19.12;83.14;98854.84;4888666;29;20067;-93
2022/08/30 02:16:13;;;;;;;39.00;13.65;;;;;;;19.19;83.19;98865.19;4879301;29;20060;-92
2022/08/30 02:19:39;;;;;;;32.05;13.88;;;;;;;19.36;83.20;98892.28;4885005;29;20043;-95
2022/08/30 02:23:13;;;;;;;34.47;13.80;;;;;;;19.34;83.37;98886.34;4906799;29;20032;-91
2022/08/30 02:25:44;;;;;;;35.42;14.63;;;;;;;18.98;83.40;98849.97;4882261;29;20076;-92
2022/08/30 02:28:18;;;;;;;36.25;14.32;;;;;;;18.81;83.41;98825.66;4873088;29;20072;-91
2022/08/30 02:31:47;;;;;;;27.10;14.38;;;;;;;19.21;84.01;98888.59;4903841;29;20086;-91
2022/08/30 02:39:24;;;;;;;42.95;14.07;;;;;;;19.19;83.74;98901.22;4919914;29;20043;-92
2022/08/30 02:43:13;;;;;;;35.80;13.98;;;;;;;19.15;83.97;98892.09;4865801;29;20057;-94
2022/08/30 02:46:46;;;;;;;33.65;13.95;;;;;;;19.10;84.37;98895.97;4831355;29;20050;-92
2022/08/30 02:50:18;;;;;;;35.88;14.18;;;;;;;19.12;84.40;98896.41;4835590;29;20061;-93
2022/08/30 02:52:44;;;;;;;34.92;14.80;;;;;;;18.87;84.27;98862.91;4851397;29;20052;-92
2022/08/30 02:55:27;;;;;;;30.77;15.63;;;;;;;18.70;84.20;98833.81;4866565;29;20045;-92
2022/08/30 02:58:58;;;;;;;38.67;16.15;;;;;;;19.10;84.39;98895.19;4840167;29;20050;-93
2022/08/30 03:01:25;;;;;;;36.53;14.93;;;;;;;19.13;83.98;98902.75;4872704;23;20084;-92
2022/08/30 03:10:48;;;;;;;37.17;14.98;;;;;;;18.81;83.90;98858.91;4915948;23;20056;-93
2022/08/30 03:14:07;;;;;;;43.38;15.57;;;;;;;19.16;83.89;98910.28;4882403;29;20043;-93
2022/08/30 03:16:36;;;;;;;34.53;15.25;;;;;;;18.77;83.88;98852.50;4872805;29;20143;-90
2022/08/30 03:19:12;;;;;;;27.42;14.70;;;;;;;18.55;83.70;98807.97;4881880;29;20043;-93
2022/08/30 03:22:42;;;;;;;34.05;14.98;;;;;;;19.19;83.61;98907.56;4880886;29;20127;-92
2022/08/30 03:25:10;;;;;;;36.78;14.93;;;;;;;18.61;83.53;98804.84;4861260;29;20117;-92
2022/08/30 03:27:36;;;;;;;37.63;17.30;;;;;;;19.15;83.49;98901.19;4888625;23;20144;-91
2022/08/30 03:31:07;;;;;;;37.10;17.03;;;;;;;19.22;83.59;98904.03;4868595;29;20036;-94
2022/08/30 03:36:30;;;;;;;40.05;17.83;;;;;;;19.38;83.28;98914.88;4864172;29;20061;-93
2022/08/30 03:39:07;;;;;;;30.42;15.25;;;;;;;19.38;82.87;98912.09;4833802;29;20156;-92
2022/08/30 03:45:20;;;;;;;34.70;14.55;;;;;;;19.06;82.53;98861.13;4863818;29;19951;-92
2022/08/30 03:52:33;;;;;;;30.17;14.07;;;;;;;19.52;82.00;98908.66;4830423;29;20046;-92
2022/08/30 03:55:08;;;;;;;35.97;14.13;;;;;;;19.30;82.15;98871.63;4816304;29;20106;-92
2022/08/30 03:57:38;;;;;;;36.65;15.43;;;;;;;19.52;81.99;98907.88;4833362;29;20045;-92
2022/08/30 04:00:12;;;;;;;35.15;14.90;;;;;;;19.17;81.84;98845.38;4848719;29;20050;-92
2022/08/30 04:02:40;;;;;;;33.30;15.23;;;;;;;19.66;81.82;98908.78;4848312;29;20042;-95
2022/08/30 04:05:28;;;;;;;36.58;14.95;;;;;;;19.66;81.02;98906.03;4848815;29;20045;-94
2022/08/30 04:08:42;;;;;;;31.98;14.82;;;;;;;19.71;80.94;98905.69;4866890;29;20083;-95
2022/08/30 04:11:08;;;;;;;37.40;15.80;;;;;;;19.40;80.53;98848.78;4853669;29;20062;-92
2022/08/30 04:13:34;;;;;;;32.08;15.55;;;;;;;19.56;80.25;98880.97;4835196;29;20081;-93
2022/08/30 04:16:01;;;;;;;39.40;14.55;;;;;;;19.59;80.52;98874.66;4838321;29;20041;-91
2022/08/30 04:18:33;;;;;;;37.92;15.55;;;;;;;19.67;79.60;98884.66;4835802;29;20046;-93
2022/08/30 04:21:09;;;;;;;38.72;15.40;;;;;;;19.63;79.24;98864.38;4835712;29;20045;-92
2022/08/30 04:23:36;;;;;;;42.33;15.80;;;;;;;20.13;78.21;98925.78;4835257;29;20098;-90
2022/08/30 04:26:12;;;;;;;34.50;15.45;;;;;;;19.91;78.32;98895.13;4823717;29;20045;-93
2022/08/30 04:28:38;;;;;;;36.00;15.10;;;;;;;20.09;78.53;98924.97;4839962;29;20069;-91
2022/08/30 04:31:17;;;;;;;33.95;15.02;;;;;;;20.13;78.20;98925.78;4827486;29;20298;-93
2022/08/30 04:33:47;;;;;;;34.17;15.43;;;;;;;19.70;77.98;98861.69;4835378;29;20066;-94
2022/08/30 04:37:12;;;;;;;35.47;15.13;;;;;;;20.10;78.22;98926.56;4818869;29;20152;-91
2022/08/30 04:40:38;;;;;;;44.00;15.73;;;;;;;20.15;77.83;98918.66;4827939;29;20046;-91
2022/08/30 04:44:08;;;;;;;33.83;15.43;;;;;;;20.23;77.59;98913.97;4821478;29;20049;-91
2022/08/30 04:46:38;;;;;;;39.47;15.43;;;;;;;20.29;77.50;98911.59;4806324;29;20045;-92
2022/08/30 04:49:31;;;;;;;36.90;16.70;;;;;;;20.40;76.76;98918.03;4813606;29;20094;-91
2022/08/30 04:52:05;;;;;;;42.83;16.10;;;;;;;20.16;76.65;98880.59;4830503;29;20042;-94
2022/08/30 04:54:31;;;;;;;49.33;17.75;;;;;;;20.13;76.81;98864.72;4815671;29;20611;-93
2022/08/30 04:57:42;;;;;;;41.03;16.15;;;;;;;20.44;76.79;98904.97;4816589;29;20253;-92
2022/08/30 05:23:12;;;;;;;39.05;19.33;;;;;;;20.45;73.45;98822.47;4734029;30;20067;-93
2022/08/30 05:26:33;;;;;;;40.50;18.08;;;;;;;21.13;73.04;98922.72;4724055;30;20204;-91
2022/08/30 05:29:08;;;;;;;41.55;18.75;;;;;;;20.61;73.11;98831.28;4754853;30;20054;-94
2022/08/30 05:31:37;;;;;;;39.83;19.13;;;;;;;21.01;73.05;98887.72;4715608;30;20452;-94
2022/08/30 05:35:05;;;;;;;50.17;19.77;;;;;;;21.33;72.45;98923.94;4729865;30;20055;-96
2022/08/30 05:38:24;;;;;;;40.88;18.15;;;;;;;21.41;72.92;98916.41;4767185;30;20096;-93
2022/08/30 05:40:53;;;;;;;39.75;17.63;;;;;;;20.96;73.09;98843.63;4803906;29;20050;-92
2022/08/30 05:43:19;;;;;;;39.35;17.33;;;;;;;21.42;72.41;98887.41;4798750;29;20062;-92
2022/08/30 05:46:48;;;;;;;49.17;19.80;;;;;;;21.76;70.96;98919.22;4812698;29;20084;-94
2022/08/30 05:49:30;;;;;;;55.65;19.27;;;;;;;21.22;70.81;98834.16;4826596;29;20054;-93
2022/08/30 05:51:58;;;;;;;45.88;19.92;;;;;;;21.29;70.10;98848.03;4832040;29;20484;-93
2022/08/30 05:54:25;;;;;;;40.20;19.05;;;;;;;21.86;69.42;98934.31;4820092;29;20253;-94
2022/08/30 05:56:51;;;;;;;43.88;19.85;;;;;;;21.82;69.76;98922.41;4820346;29;20050;-91
2022/08/30 05:59:43;;;;;;;51.38;19.70;;;;;;;21.79;70.12;98925.97;4803757;29;20046;-95
2022/08/30 06:02:09;;;;;;;47.15;17.77;;;;;;;21.69;69.88;98899.75;4806233;29;20038;-90
2022/08/30 06:04:35;;;;;;;35.72;17.55;;;;;;;21.86;70.14;98925.97;4804629;29;20102;-92
2022/08/30 06:07:11;;;;;;;51.13;18.52;;;;;;;21.54;70.15;98884.25;4829900;29;20041;-91
2022/08/30 06:12:59;;;;;;;43.55;19.13;;;;;;;21.68;70.02;98873.09;4838539;29;20054;-89
2022/08/30 06:15:25;;;;;;;36.33;16.25;;;;;;;22.23;69.64;98928.34;4806784;29;20062;-89
2022/08/30 06:17:51;;;;;;;50.80;20.35;;;;;;;22.04;68.19;98912.03;4807078;29;20052;-89
2022/08/30 06:20:19;;;;;;;38.83;18.38;;;;;;;22.13;68.25;98922.78;4790133;29;20053;-90
2022/08/30 06:22:45;;;;;;;59.47;20.85;;;;;;;22.23;67.98;98930.34;4792963;29;20077;-90
2022/08/30 06:25:13;;;;;;;48.97;18.33;;;;;;;22.12;67.72;98919.19;4783158;29;20055;-90
2022/08/30 06:27:39;;;;;;;47.67;18.95;;;;;;;22.23;68.00;98917.19;4794865;29;20050;-90
2022/08/30 06:30:07;;;;;;;44.88;18.40;;;;;;;22.27;66.76;98919.97;4828244;29;20046;-90
2022/08/30 06:32:45;;;;;;;37.38;19.65;;;;;;;21.97;66.15;98870.31;4797942;29;20050;-89
2022/08/30 06:35:11;;;;;;;42.85;17.67;;;;;;;22.46;66.18;98943.81;4827475;29;20041;-90
2022/08/30 06:37:37;;;;;;;46.53;18.42;;;;;;;22.73;66.60;98952.47;4814756;29;20042;-90
2022/08/30 06:40:32;;;;;;;41.60;20.20;;;;;;;22.93;66.03;98945.25;4796036;29;20050;-91
2022/08/30 06:43:08;;;;;;;37.58;18.02;;;;;;;23.08;64.48;98947.94;4815240;29;20030;-91
2022/08/30 06:45:34;;;;;;;48.00;19.65;;;;;;;22.86;65.41;98916.59;4802449;29;20127;-91
2022/08/30 06:48:02;;;;;;;49.95;18.65;;;;;;;23.04;64.87;98949.97;4778750;29;20141;-95
2022/08/30 06:50:54;;;;;;;44.95;17.00;;;;;;;23.25;63.61;98940.72;4785663;29;20160;-92
2022/08/30 06:53:23;;;;;;;43.47;19.20;;;;;;;23.08;62.60;98915.31;4796186;29;20042;-92
2022/08/30 06:56:17;;;;;;;48.58;19.02;;;;;;;23.38;62.78;98939.03;4810607;29;20560;-92
2022/08/30 06:58:44;;;;;;;48.17;18.52;;;;;;;23.48;63.92;98940.16;4812064;29;20087;-93
2022/08/30 07:01:39;;;;;;;42.45;18.98;;;;;;;23.64;63.26;98946.00;4808820;29;20042;-91
2022/08/30 07:04:05;;;;;;;42.00;19.23;;;;;;;23.43;62.77;98916.28;4794937;29;20046;-91
2022/08/30 07:06:32;;;;;;;46.42;18.80;;;;;;;23.32;62.72;98896.84;4795411;29;20054;-90
2022/08/30 07:09:07;;;;;;;36.97;16.58;;;;;;;23.71;62.15;98914.50;4795929;29;20042;-91
2022/08/30 07:12:00;;;;;;;47.63;18.05;;;;;;;23.87;62.37;98951.84;4810357;29;20453;-91
2022/08/30 07:14:26;;;;;;;39.03;17.67;;;;;;;23.77;62.30;98916.44;4812852;29;20042;-91
2022/08/30 07:20:38;;;;;;;42.50;16.73;;;;;;;24.25;60.95;98943.53;4820783;29;20042;-95
2022/08/30 07:23:29;;;;;;;44.17;18.17;;;;;;;24.26;60.57;98913.59;4804318;29;20054;-95
2022/08/30 07:25:56;;;;;;;55.65;19.95;;;;;;;24.35;59.72;98931.44;4804894;29;20057;-95
2022/08/30 07:28:46;;;;;;;41.88;18.55;;;;;;;23.96;59.48;98848.06;4796353;29;20074;-94
2022/08/30 07:31:40;;;;;;;47.72;18.38;;;;;;;24.50;59.92;98936.91;4788580;29;20068;-94
2022/08/30 07:34:47;;;;;;;47.00;17.45;;;;;;;24.60;59.21;98945.19;4761827;30;20138;-94
2022/08/30 07:37:16;;;;;;;47.40;18.83;;;;;;;24.26;59.41;98899.63;4736637;30;20156;-94
2022/08/30 07:39:42;;;;;;;45.97;18.27;;;;;;;24.51;59.57;98916.16;4764039;30;20055;-94
2022/08/30 07:42:26;;;;;;;48.70;18.67;;;;;;;24.20;59.09;98878.94;4766646;30;20142;-94
2022/08/30 07:44:52;;;;;;;42.85;18.33;;;;;;;24.23;57.58;98864.13;4766809;30;20047;-95
2022/08/30 07:47:21;;;;;;;;;;;;;;;24.79;58.39;98951.34;4763549;30;20060;-95
2022/08/30 07:50:14;;;;;;;38.15;16.95;;;;;;;24.93;58.56;98939.97;4783804;30;19957;-95
2022/08/30 07:52:40;;;;;;;50.22;18.85;;;;;;;24.72;57.36;98899.09;4764226;30;20114;-92
2022/08/30 07:55:16;;;;;;;48.25;18.30;;;;;;;24.56;58.06;98877.34;4764419;30;20111;-91
2022/08/30 07:57:48;;;;;;;53.22;18.90;;;;;;;24.57;57.78;98873.34;4774982;30;20052;-91
2022/08/30 08:00:16;;;;;;;51.03;18.35;;;;;;;25.05;57.53;98924.66;4756647;30;20113;-94
2022/08/30 08:03:06;;;;;;;59.58;19.25;;;;;;;25.23;57.52;98957.97;4727347;30;20147;-93
2022/08/30 08:09:04;;;;;;;62.97;19.30;;;;;;;24.74;57.99;98868.75;4778035;30;20154;-93
2022/08/30 08:11:35;;;;;;;43.90;17.70;;;;;;;24.99;56.73;98912.34;4777440;30;20043;-95
2022/08/30 08:14:07;;;;;;;40.28;19.20;;;;;;;24.76;54.69;98876.69;4785887;30;20114;-93
2022/08/30 08:17:00;;;;;;;42.60;18.48;;;;;;;25.20;54.62;98956.84;4794143;30;20055;-96
2022/08/30 08:19:36;;;;;;;52.53;20.77;;;;;;;24.88;55.95;98926.47;4793921;30;20056;-95
2022/08/30 08:22:20;;;;;;;50.50;21.92;;;;;;;24.70;55.91;98907.13;4778011;30;20077;-93
2022/08/30 08:24:50;;;;;;;44.70;18.92;;;;;;;25.12;57.03;98960.94;4768030;30;20050;-95
2022/08/30 08:27:17;;;;;;;46.58;20.05;;;;;;;25.07;56.46;98956.56;4749693;30;20040;-95
2022/08/30 08:29:47;;;;;;;48.08;18.27;;;;;;;25.08;57.10;98955.34;4788254;23;20043;-95
2022/08/30 08:39:12;;;;;;;49.28;18.77;;;;;;;24.99;56.25;98873.19;4880551;29;20049;-93
2022/08/30 08:41:58;;;;;;;38.65;18.10;;;;;;;25.46;55.86;98949.69;4864377;29;20049;-93
2022/08/30 08:44:51;;;;;;;50.42;19.08;;;;;;;25.55;55.65;98949.91;4868359;29;20112;-94
2022/08/30 08:47:28;;;;;;;42.42;18.40;;;;;;;25.55;55.62;98949.13;4905816;23;20057;-94
2022/08/30 08:56:13;;;;;;;54.05;21.77;;;;;;;25.54;53.00;98897.16;4906325;29;20049;-94
2022/08/30 08:59:10;;;;;;;44.05;20.63;;;;;;;25.42;52.91;98898.53;4891243;29;20032;-95
2022/08/30 09:01:38;;;;;;;40.35;21.02;;;;;;;25.20;52.07;98872.09;4891154;29;20045;-94
2022/08/30 09:04:55;;;;;;;53.67;21.92;;;;;;;25.69;51.93;98953.72;4878259;29;20044;-95
2022/08/30 09:18:02;;;;;;;54.78;25.10;;;;;;;25.96;51.17;98962.09;4895755;29;20107;-95
2022/08/30 09:21:21;;;;;;;58.42;25.15;;;;;;;25.95;50.59;98943.72;4899906;29;20044;-95
2022/08/30 09:24:34;;;;;;;52.50;24.67;;;;;;;25.99;50.71;98956.47;4879531;29;20134;-94
2022/08/30 09:40:36;;;;;;;57.70;23.77;;;;;;;26.11;50.14;98912.22;4907449;29;20053;-90
2022/08/30 09:44:06;;;;;;;42.75;22.73;;;;;;;26.52;50.29;98953.91;4872754;29;20044;-93
2022/08/30 09:46:32;;;;;;;55.63;27.30;;;;;;;26.51;46.77;98940.34;4871889;29;20143;-92
2022/08/30 09:49:17;;;;;;;;;;;;;;;26.58;47.43;98948.59;4866189;29;20040;-92
2022/08/30 09:52:49;;;;;;;49.05;25.25;;;;;;;26.66;47.26;98952.88;4872845;29;19930;-92
2022/08/30 09:55:41;;;;;;;50.20;24.35;;;;;;;26.73;46.34;98941.50;4872441;29;20048;-92
2022/08/30 09:58:34;;;;;;;63.90;25.17;;;;;;;26.75;46.23;98927.81;4885918;29;20505;-91
2022/08/30 10:01:31;;;;;;;46.53;26.08;;;;;;;27.10;45.12;98950.75;4885271;29;20049;-94
2022/08/30 10:04:30;;;;;;;44.25;22.95;;;;;;;27.12;43.07;98951.13;4870969;29;20473;-93
2022/08/30 10:07:42;;;;;;;61.95;23.67;;;;;;;27.13;42.58;98947.09;4885289;29;20056;-92
2022/08/30 10:10:27;;;;;;;42.72;21.92;;;;;;;27.36;46.10;98946.97;4859254;29;20056;-93
2022/08/30 10:13:05;;;;;;;48.30;23.77;;;;;;;27.49;47.08;98955.50;4872425;29;20064;-92
2022/08/30 10:16:08;;;;;;;46.80;23.58;;;;;;;27.59;45.44;98931.22;4872020;29;20044;-91
2022/08/30 10:19:01;;;;;;;47.33;22.73;;;;;;;27.83;44.90;98951.53;4902328;29;20052;-93
2022/08/30 10:22:02;;;;;;;43.38;22.45;;;;;;;27.91;45.12;98949.31;4856974;29;20075;-94
2022/08/30 10:24:39;;;;;;;43.38;23.50;;;;;;;27.56;42.32;98902.00;4879000;29;20518;-91
2022/08/30 10:27:42;;;;;;;65.85;24.05;;;;;;;27.81;40.96;98957.56;4870305;29;20056;-90
2022/08/30 10:30:12;;;;;;;46.40;23.90;;;;;;;27.66;42.31;98927.44;4898151;29;20143;-93
2022/08/30 10:33:02;;;;;;;38.10;22.08;;;;;;;27.75;42.29;98958.50;4869738;29;20047;-91
2022/08/30 10:35:35;;;;;;;57.88;24.38;;;;;;;27.52;42.36;98943.41;4884901;29;20052;-89
2022/08/30 10:38:33;;;;;;;48.78;24.38;;;;;;;27.51;42.48;98960.69;4884080;29;20048;-89
2022/08/30 10:41:12;;;;;;;51.75;23.63;;;;;;;27.40;43.73;98950.50;4868095;29;20049;-89
2022/08/30 10:47:26;;;;;;;80.55;24.52;;;;;;;27.56;44.11;98957.38;4884243;29;20052;-90
2022/08/30 10:50:44;;;;;;;50.58;21.63;;;;;;;27.56;42.34;98955.34;4880393;29;20048;-92
2022/08/30 10:53:34;;;;;;;46.40;22.60;;;;;;;27.82;44.36;98947.94;4867986;29;20044;-94
2022/08/30 10:56:07;;;;;;;59.38;22.02;;;;;;;27.94;41.82;98938.00;4868987;29;20048;-89
2022/08/30 10:58:38;;;;;;;44.70;23.83;;;;;;;27.99;41.15;98934.66;4868254;29;20064;-88
2022/08/30 11:01:08;;;;;;;44.20;21.05;;;;;;;27.79;42.50;98909.47;4866450;29;20056;-89
2022/08/30 11:03:56;;;;;;;42.65;21.80;;;;;;;27.72;41.22;98937.72;4882094;29;20487;-90
2022/08/30 11:07:23;;;;;;;48.92;23.08;;;;;;;27.69;40.80;98949.81;4881705;29;20045;-89
2022/08/30 11:10:26;;;;;;;50.30;21.95;;;;;;;27.78;43.51;98949.22;4876836;29;20041;-93
2022/08/30 11:13:41;;;;;;;41.38;20.70;;;;;;;28.00;40.98;98952.31;4848988;29;20041;-93
2022/08/30 11:16:28;;;;;;;49.35;23.20;;;;;;;27.63;41.33;98878.56;4849624;29;20136;-88
2022/08/30 11:18:57;;;;;;;44.10;21.25;;;;;;;27.84;41.26;98917.38;4864017;29;20033;-88
2022/08/30 11:21:32;;;;;;;41.97;20.90;;;;;;;27.96;40.91;98934.75;4908842;23;20143;-89
2022/08/30 11:24:12;;;;;;;51.45;19.70;;;;;;;28.00;42.86;98935.44;4901369;29;20055;-92
2022/08/30 11:26:44;;;;;;;39.80;19.17;;;;;;;28.06;41.94;98936.50;4875660;29;20045;-93
2022/08/30 11:30:02;;;;;;;48.63;22.08;;;;;;;28.22;40.46;98930.06;4870940;29;20047;-94
2022/08/30 11:33:07;;;;;;;49.13;21.67;;;;;;;28.36;39.47;98923.25;4870197;29;20099;-93
2022/08/30 11:45:43;;;;;;;45.70;22.75;;;;;;;28.45;40.46;98890.50;4893527;23;20065;-92
2022/08/30 11:48:50;;;;;;;41.15;15.55;;;;;;;28.87;41.10;98927.03;4863638;23;20073;-90
2022/08/30 11:51:43;;;;;;;41.35;18.40;;;;;;;28.74;38.76;98884.03;4889419;29;20052;-92
2022/08/30 11:54:39;;;;;;;50.17;22.98;;;;;;;29.00;39.64;98921.47;4886152;29;20435;-93
2022/08/30 11:57:44;;;;;;;64.20;31.00;;;;;;;29.05;41.73;98918.13;4882216;29;20064;-90
2022/08/30 12:00:38;;;;;;;57.93;26.63;;;;;;;29.03;38.82;98910.09;4892704;29;20056;-93
2022/08/30 12:03:14;;;;;;;94.32;32.15;;;;;;;29.10;43.31;98911.91;4852464;29;20509;-93
2022/08/30 12:05:41;;;;;;;60.28;29.15;;;;;;;29.19;43.06;98905.63;4896379;29;20590;-90
2022/08/30 12:08:27;;;;;;;37.60;16.33;;;;;;;29.29;39.43;98910.13;4877132;29;20410;-91
2022/08/30 12:11:01;;;;;;;36.28;16.17;;;;;;;29.27;38.20;98901.34;4870597;29;20059;-93
2022/08/30 12:13:36;;;;;;;37.05;15.70;;;;;;;29.34;37.83;98901.13;4883583;29;20073;-92
2022/08/30 12:16:15;;;;;;;45.65;20.52;;;;;;;29.40;38.17;98902.13;4868676;29;20049;-92
2022/08/30 12:19:43;;;;;;;30.98;15.65;;;;;;;29.40;36.17;98892.88;4862821;29;20082;-93
2022/08/30 12:22:18;;;;;;;30.38;14.65;;;;;;;29.22;35.76;98848.44;4855141;29;20068;-96
2022/08/30 12:25:00;;;;;;;28.40;13.68;;;;;;;29.55;34.89;98894.00;4874027;29;20056;-95
2022/08/30 12:27:32;;;;;;;31.88;13.15;;;;;;;29.16;35.00;98822.06;4838599;29;20041;-96
2022/08/30 12:30:06;;;;;;;30.58;14.40;;;;;;;29.29;34.38;98853.03;4860576;29;20057;-92
2022/08/30 12:32:47;;;;;;;30.15;13.88;;;;;;;29.05;35.10;98818.84;4867998;29;20138;-92
2022/08/30 12:35:27;;;;;;;31.73;14.45;;;;;;;29.52;35.17;98886.47;4847054;29;20122;-96
2022/08/30 12:38:01;;;;;;;36.97;14.43;;;;;;;29.56;34.56;98883.53;4850577;29;20037;-88
2022/08/30 12:40:33;;;;;;;34.15;14.10;;;;;;;29.25;33.97;98859.56;4887225;29;20083;-92
2022/08/30 12:43:06;;;;;;;32.92;14.15;;;;;;;29.49;34.02;98882.53;4850397;29;20041;-94
2022/08/30 12:45:55;;;;;;;31.40;13.85;;;;;;;29.42;33.20;98867.91;4854208;29;20053;-91
2022/08/30 12:48:24;;;;;;;33.85;12.65;;;;;;;29.17;32.85;98830.09;4886196;29;20085;-94
2022/08/30 12:54:04;;;;;;;37.58;13.30;;;;;;;29.15;32.65;98824.09;4870486;29;20053;-92
2022/08/30 12:56:51;;;;;;;39.20;13.57;;;;;;;29.26;31.79;98818.91;4872245;29;20142;-92
2022/08/30 12:59:50;;;;;;;30.02;15.05;;;;;;;29.49;31.84;98868.44;4840448;29;20053;-94
2022/08/30 13:02:51;;;;;;;33.10;13.57;;;;;;;29.17;33.25;98799.13;4876710;29;20056;-93
2022/08/30 13:05:41;;;;;;;30.02;12.13;;;;;;;29.71;33.44;98867.78;4848271;29;20088;-90
2022/08/30 13:08:16;;;;;;;32.90;13.30;;;;;;;29.76;34.22;98863.56;4850326;29;20042;-92
2022/08/30 13:10:53;;;;;;;24.58;11.43;;;;;;;29.49;33.25;98819.78;4814894;29;20570;-91
2022/08/30 13:13:33;;;;;;;31.90;11.98;;;;;;;29.32;34.73;98793.78;4859980;29;20125;-94
2022/08/30 13:16:25;;;;;;;28.92;10.93;;;;;;;29.32;33.74;98838.06;4819130;29;20050;-94
2022/08/30 13:19:39;;;;;;;28.00;11.32;;;;;;;29.26;35.17;98863.16;4832801;29;20051;-96
2022/08/30 13:23:09;;;;;;;28.50;11.32;;;;;;;29.13;34.65;98860.34;4910045;29;20114;-93
2022/08/30 13:26:30;;;;;;;33.00;10.10;;;;;;;29.02;35.29;98857.88;4879253;29;20064;-96
2022/08/30 13:28:59;;;;;;;26.40;9.82;;;;;;;28.57;35.06;98793.31;4886059;29;20037;-91
2022/08/30 13:31:29;;;;;;;31.73;10.25;;;;;;;28.45;35.73;98792.09;4899510;29;20047;-91
2022/08/30 13:33:56;;;;;;;23.95;8.55;;;;;;;28.67;36.42;98836.44;4905217;29;20041;-96
2022/08/30 13:36:35;;;;;;;30.25;10.00;;;;;;;28.68;36.71;98852.09;4887231;29;20032;-90
2022/08/30 13:39:02;;;;;;;37.95;9.77;;;;;;;28.58;37.10;98856.78;4906317;29;20024;-92
2022/08/30 13:41:33;;;;;;;32.60;9.02;;;;;;;28.18;37.14;98814.94;4888155;29;20025;-89
2022/08/30 13:44:03;;;;;;;34.22;9.18;;;;;;;28.24;37.11;98840.44;4903876;29;20045;-94
2022/08/30 13:46:40;;;;;;;28.73;8.82;;;;;;;28.00;35.65;98806.97;4892602;29;20048;-95
2022/08/30 13:50:00;;;;;;;35.20;8.88;;;;;;;27.82;34.78;98799.06;4900088;29;20077;-95
2022/08/30 13:52:27;;;;;;;27.63;8.45;;;;;;;27.64;34.18;98779.81;4893244;29;20053;-95
2022/08/30 13:54:56;;;;;;;22.75;8.38;;;;;;;27.86;34.33;98824.25;4886012;29;20096;-93
2022/08/30 14:01:06;;;;;;;18.85;7.68;;;;;;;27.61;35.14;98808.00;4882293;29;20057;-94
2022/08/30 14:03:38;;;;;;;38.17;7.80;;;;;;;27.64;34.90;98824.75;4921246;29;20041;-96
2022/08/30 14:06:27;;;;;;;21.85;7.90;;;;;;;27.34;35.45;98789.44;4802733;29;20069;-94
2022/08/30 14:09:42;;;;;;;33.55;8.25;;;;;;;27.71;35.42;98851.88;4817011;29;20050;-95
2022/08/30 14:12:09;;;;;;;36.33;8.98;;;;;;;27.61;36.51;98841.69;4808428;29;20159;-87
2022/08/30 14:14:35;;;;;;;31.20;8.52;;;;;;;27.62;37.08;98846.09;4807759;29;20527;-90
2022/08/30 14:17:01;;;;;;;47.25;13.30;;;;;;;27.39;37.33;98799.34;4823798;29;20054;-89
2022/08/30 14:21:52;;;;;;;39.90;10.00;;;;;;;27.40;38.62;98792.50;4810584;29;20054;-90
2022/08/30 14:24:19;;;;;;;46.08;13.60;;;;;;;27.73;39.90;98834.59;4805625;29;20055;-87
2022/08/30 14:26:48;;;;;;;42.83;11.40;;;;;;;27.64;39.83;98815.56;4818468;29;20579;-91
2022/08/30 14:29:17;;;;;;;36.15;13.73;;;;;;;27.87;40.42;98845.47;4807453;29;20073;-92
2022/08/30 14:31:44;;;;;;;42.40;15.23;;;;;;;27.70;40.00;98802.56;4788111;30;20147;-89
2022/08/30 14:34:11;;;;;;;34.88;14.52;;;;;;;27.94;39.91;98819.22;4773179;30;20060;-92
2022/08/30 14:36:41;;;;;;;35.30;14.18;;;;;;;27.92;40.13;98808.44;4783889;30;20052;-90
2022/08/30 14:39:10;;;;;;;36.67;14.85;;;;;;;27.83;39.44;98803.44;4763457;30;20096;-91
2022/08/30 14:41:42;;;;;;;45.47;12.45;;;;;;;27.90;40.98;98819.31;4773442;30;20036;-90
2022/08/30 14:44:09;;;;;;;41.58;12.02;;;;;;;27.60;41.73;98792.41;4839062;29;20072;-86
2022/08/30 14:46:35;;;;;;;36.17;11.07;;;;;;;27.65;41.80;98794.69;4869763;29;20550;-87
2022/08/30 14:49:01;;;;;;;45.67;12.48;;;;;;;27.81;42.40;98813.53;4867710;29;20044;-93
2022/08/30 14:51:27;;;;;;;33.53;9.75;;;;;;;27.72;42.62;98811.34;4881236;29;20049;-89
2022/08/30 14:54:22;;;;;;;31.25;11.25;;;;;;;27.57;43.49;98776.44;4881764;29;20053;-89
2022/08/30 14:56:49;;;;;;;37.28;13.07;;;;;;;27.67;42.33;98780.97;4848712;29;20156;-91
2022/08/30 14:59:17;;;;;;;42.60;12.98;;;;;;;28.03;43.25;98837.00;4864947;23;20082;-92
2022/08/30 15:01:44;;;;;;;43.55;12.18;;;;;;;27.81;44.30;98805.88;4853076;29;20526;-90